createdAt,value
2022-09-14T00:01:29.895Z,68.92
2022-09-14T00:03:59.557Z,68.66
2022-09-14T00:06:28.226Z,68.58
2022-09-14T00:08:56.795Z,68.62
2022-09-14T00:11:25.860Z,68.55
2022-09-14T00:13:54.242Z,68.67
2022-09-14T00:16:23.838Z,68.63
2022-09-14T00:18:56.248Z,68.39
2022-09-14T00:21:24.855Z,68.48
2022-09-14T00:23:53.100Z,68.56
2022-09-14T00:26:22.393Z,68.47
2022-09-14T00:28:51.714Z,68.55
2022-09-14T00:31:20.603Z,68.69
2022-09-14T00:33:49.665Z,68.51
2022-09-14T00:36:19.014Z,68.44
2022-09-14T00:38:47.814Z,68.56
2022-09-14T00:41:17.450Z,68.66
2022-09-14T00:43:56.928Z,68.69
2022-09-14T00:46:25.727Z,68.52
2022-09-14T00:48:54.581Z,68.58
2022-09-14T00:51:22.545Z,68.57
2022-09-14T00:53:50.745Z,68.57
2022-09-14T00:56:18.732Z,68.52
2022-09-14T00:58:49.344Z,68.55
2022-09-14T01:01:17.186Z,68.58
2022-09-14T01:03:45.094Z,68.45
2022-09-14T01:06:26.477Z,68.57
2022-09-14T01:08:54.226Z,68.68
2022-09-14T01:11:22.113Z,68.88
2022-09-14T01:13:50.530Z,68.86
2022-09-14T01:16:23.094Z,68.82
2022-09-14T01:18:55.548Z,68.85
2022-09-14T01:21:25.150Z,68.90
2022-09-14T01:23:59.666Z,68.87
2022-09-14T01:26:36.447Z,69.07
2022-09-14T01:29:18.546Z,69.19
2022-09-14T01:31:50.357Z,69.03
2022-09-14T01:34:24.415Z,68.90
2022-09-14T01:36:55.716Z,68.85
2022-09-14T01:39:23.417Z,68.25
2022-09-14T01:41:52.720Z,68.22
2022-09-14T01:44:23.556Z,68.16
2022-09-14T01:46:55.935Z,67.96
2022-09-14T01:49:23.659Z,67.84
2022-09-14T01:51:56.863Z,67.87
2022-09-14T01:54:43.616Z,67.77
2022-09-14T01:57:15.335Z,67.85
2022-09-14T01:59:44.390Z,67.77
2022-09-14T02:02:28.123Z,67.55
2022-09-14T02:05:03.388Z,67.54
2022-09-14T02:07:31.390Z,67.38
2022-09-14T02:09:59.468Z,67.37
2022-09-14T02:12:27.497Z,67.23
2022-09-14T02:14:55.484Z,67.03
2022-09-14T02:17:23.614Z,66.70
2022-09-14T02:19:56.559Z,66.92
2022-09-14T02:22:25.968Z,66.94
2022-09-14T02:24:54.139Z,66.84
2022-09-14T02:27:22.318Z,66.69
2022-09-14T02:29:50.680Z,66.83
2022-09-14T02:32:18.370Z,66.70
2022-09-14T02:35:01.564Z,66.79
2022-09-14T02:37:47.663Z,66.68
2022-09-14T02:40:24.724Z,66.59
2022-09-14T02:42:55.581Z,66.50
2022-09-14T02:45:26.135Z,65.94
2022-09-14T02:48:02.985Z,65.71
2022-09-14T02:50:33.541Z,65.76
2022-09-14T02:53:14.346Z,65.74
2022-09-14T02:55:46.157Z,65.61
2022-09-14T02:58:14.941Z,65.66
2022-09-14T03:00:44.687Z,65.69
2022-09-14T03:03:14.048Z,65.60
2022-09-14T03:05:42.522Z,65.50
2022-09-14T03:08:11.002Z,65.69
2022-09-14T03:10:39.075Z,65.68
2022-09-14T03:13:06.796Z,65.86
2022-09-14T03:15:35.307Z,65.98
2022-09-14T03:18:03.067Z,66.14
2022-09-14T03:20:32.174Z,66.04
2022-09-14T03:23:00.358Z,66.02
2022-09-14T03:25:28.803Z,66.02
2022-09-14T03:27:57.720Z,66.00
2022-09-14T03:30:25.894Z,66.07
2022-09-14T03:32:53.764Z,66.20
2022-09-14T03:35:21.832Z,66.25
2022-09-14T03:37:49.697Z,66.16
2022-09-14T03:40:21.701Z,66.26
2022-09-14T03:42:50.855Z,66.30
2022-09-14T03:45:19.447Z,66.60
2022-09-14T03:47:47.710Z,66.58
2022-09-14T03:50:16.197Z,66.86
2022-09-14T03:52:44.266Z,67.32
2022-09-14T03:55:12.135Z,67.28
2022-09-14T03:57:39.897Z,67.13
2022-09-14T04:00:08.487Z,67.31
2022-09-14T04:02:39.710Z,67.55
2022-09-14T04:05:08.613Z,67.43
2022-09-14T04:07:36.590Z,67.92
2022-09-14T04:10:05.948Z,68.26
2022-09-14T04:12:37.294Z,68.42
2022-09-14T04:15:06.531Z,68.81
2022-09-14T04:17:34.689Z,68.97
2022-09-14T04:20:02.761Z,69.15
2022-09-14T04:22:30.673Z,69.06
2022-09-14T04:24:58.610Z,68.97
2022-09-14T04:27:26.484Z,68.97
2022-09-14T04:29:54.139Z,69.29
2022-09-14T04:32:21.906Z,69.56
2022-09-14T04:34:49.870Z,69.54
2022-09-14T04:37:17.530Z,69.40
2022-09-14T04:39:45.331Z,70.18
2022-09-14T04:42:13.223Z,70.32
2022-09-14T04:44:41.134Z,70.39
2022-09-14T04:47:09.104Z,70.34
2022-09-14T04:49:36.869Z,70.23
2022-09-14T04:52:04.602Z,70.35
2022-09-14T04:54:32.493Z,69.95
2022-09-14T04:57:00.207Z,70.94
2022-09-14T04:59:28.019Z,70.40
2022-09-14T05:01:55.718Z,70.51
2022-09-14T05:04:23.530Z,69.80
2022-09-14T05:06:51.365Z,69.41
2022-09-14T05:09:19.278Z,69.60
2022-09-14T05:11:47.144Z,68.98
2022-09-14T05:14:15.011Z,69.12
2022-09-14T05:16:43.568Z,69.53
2022-09-14T05:19:16.072Z,68.82
2022-09-14T05:21:44.538Z,68.63
2022-09-14T05:24:14.930Z,68.35
2022-09-14T05:26:43.943Z,68.08
2022-09-14T05:29:13.064Z,67.80
2022-09-14T05:31:41.024Z,67.63
2022-09-14T05:34:09.513Z,67.67
2022-09-14T05:36:38.196Z,68.50
2022-09-14T05:39:07.397Z,67.48
2022-09-14T05:41:35.977Z,68.12
2022-09-14T05:44:03.946Z,67.19
2022-09-14T05:46:31.957Z,67.49
2022-09-14T05:48:59.781Z,66.85
2022-09-14T05:51:27.956Z,67.35
2022-09-14T05:53:58.653Z,66.64
2022-09-14T05:56:29.959Z,66.48
2022-09-14T05:58:59.309Z,66.40
2022-09-14T06:01:28.778Z,66.15
2022-09-14T06:03:58.038Z,65.58
2022-09-14T06:06:26.415Z,65.33
2022-09-14T06:08:55.714Z,65.42
2022-09-14T06:11:29.009Z,65.61
2022-09-14T06:13:57.141Z,65.10
2022-09-14T06:16:26.071Z,65.11
2022-09-14T06:18:55.167Z,65.40
2022-09-14T06:21:24.163Z,64.79
2022-09-14T06:23:52.227Z,64.71
2022-09-14T06:26:21.021Z,64.89
2022-09-14T06:28:49.395Z,64.36
2022-09-14T06:31:17.931Z,63.66
2022-09-14T06:33:46.218Z,63.01
2022-09-14T06:36:15.468Z,62.60
2022-09-14T06:38:44.447Z,62.71
2022-09-14T06:41:13.735Z,61.94
2022-09-14T06:43:42.226Z,61.83
2022-09-14T06:46:10.095Z,61.61
2022-09-14T06:48:39.799Z,59.88
2022-09-14T06:51:13.382Z,59.77
2022-09-14T06:53:42.300Z,59.30
2022-09-14T06:56:10.161Z,59.48
2022-09-14T06:58:38.025Z,58.85
2022-09-14T07:01:06.502Z,58.99
2022-09-14T07:03:35.622Z,59.34
2022-09-14T07:06:23.537Z,58.69
2022-09-14T07:08:52.369Z,59.02
2022-09-14T07:11:21.668Z,59.63
2022-09-14T07:13:49.903Z,59.33
2022-09-14T07:16:17.968Z,58.55
2022-09-14T07:18:45.836Z,58.48
2022-09-14T07:21:15.854Z,58.52
2022-09-14T07:23:44.421Z,59.00
2022-09-14T07:26:19.471Z,59.13
2022-09-14T07:28:48.553Z,58.41
2022-09-14T07:31:19.367Z,57.62
2022-09-14T07:33:47.637Z,56.28
2022-09-14T07:36:15.865Z,56.18
2022-09-14T07:38:58.973Z,56.79
2022-09-14T07:41:28.375Z,56.15
2022-09-14T07:44:00.372Z,56.72
2022-09-14T07:46:29.127Z,56.34
2022-09-14T07:48:58.426Z,56.04
2022-09-14T07:51:26.584Z,56.29
2022-09-14T07:53:54.280Z,56.34
2022-09-14T07:56:23.047Z,55.63
2022-09-14T07:58:55.413Z,55.00
2022-09-14T08:01:26.450Z,54.72
2022-09-14T08:03:54.108Z,53.41
2022-09-14T08:06:22.990Z,53.25
2022-09-14T08:08:51.487Z,53.11
2022-09-14T08:11:20.969Z,52.97
2022-09-14T08:14:13.034Z,52.99
2022-09-14T08:16:41.207Z,53.39
2022-09-14T08:19:13.362Z,53.10
2022-09-14T08:21:46.208Z,52.33
2022-09-14T08:24:16.482Z,52.13
2022-09-14T08:26:44.463Z,52.60
2022-09-14T08:29:13.610Z,53.25
2022-09-14T08:31:43.271Z,52.88
2022-09-14T08:34:11.729Z,53.28
2022-09-14T08:36:40.492Z,53.46
2022-09-14T08:39:09.579Z,53.34
2022-09-14T08:41:43.172Z,53.58
2022-09-14T08:44:11.078Z,53.80
2022-09-14T08:46:40.692Z,52.96
2022-09-14T08:49:16.436Z,53.43
2022-09-14T08:51:44.297Z,53.37
2022-09-14T08:54:11.980Z,53.23
2022-09-14T08:56:41.780Z,52.76
2022-09-14T08:59:28.282Z,52.62
2022-09-14T09:02:09.352Z,53.14
2022-09-14T09:04:50.088Z,53.67
2022-09-14T09:07:30.278Z,53.82
2022-09-14T09:09:58.295Z,53.05
2022-09-14T09:12:29.034Z,53.41
2022-09-14T09:14:58.279Z,53.00
2022-09-14T09:17:35.041Z,53.37
2022-09-14T09:20:20.952Z,53.99
2022-09-14T09:22:54.036Z,54.18
2022-09-14T09:25:27.319Z,54.26
2022-09-14T09:27:57.132Z,54.38
2022-09-14T09:30:24.903Z,54.32
2022-09-14T09:32:53.073Z,54.88
2022-09-14T09:35:53.486Z,55.16
2022-09-14T09:38:27.281Z,55.27
2022-09-14T09:40:58.589Z,55.11
2022-09-14T09:43:47.930Z,55.13
2022-09-14T09:46:14.725Z,54.90
2022-09-14T09:48:43.985Z,55.18
2022-09-14T09:51:13.981Z,55.13
2022-09-14T09:53:51.226Z,55.28
2022-09-14T09:56:48.324Z,54.96
2022-09-14T09:59:27.158Z,55.29
2022-09-14T10:01:56.618Z,54.95
2022-09-14T10:04:29.018Z,54.93
2022-09-14T10:06:58.218Z,54.45
2022-09-14T10:09:27.610Z,54.33
2022-09-14T10:12:02.535Z,54.34
2022-09-14T10:14:35.453Z,54.72
2022-09-14T10:17:08.311Z,54.48
2022-09-14T10:19:36.894Z,54.71
2022-09-14T10:22:17.531Z,54.35
2022-09-14T10:25:15.228Z,54.35
2022-09-14T10:27:56.817Z,54.56
2022-09-14T10:30:54.019Z,54.68
2022-09-14T10:33:21.935Z,54.93
2022-09-14T10:35:49.496Z,55.12
2022-09-14T10:38:17.226Z,55.02
2022-09-14T10:40:48.635Z,54.73
2022-09-14T10:43:38.482Z,54.98
2022-09-14T10:46:12.638Z,54.89
2022-09-14T10:48:40.654Z,54.82
2022-09-14T10:51:29.513Z,54.99
2022-09-14T10:54:01.493Z,55.05
2022-09-14T10:56:38.983Z,55.29
2022-09-14T10:59:06.748Z,55.15
2022-09-14T11:01:34.551Z,55.24
2022-09-14T11:04:28.698Z,54.91
2022-09-14T11:07:02.726Z,55.20
2022-09-14T11:09:36.187Z,55.56
2022-09-14T11:12:10.555Z,55.35
2022-09-14T11:14:41.151Z,55.34
2022-09-14T11:17:27.864Z,55.73
2022-09-14T11:20:18.771Z,56.63
2022-09-14T11:22:46.692Z,56.75
2022-09-14T11:25:18.695Z,56.57
2022-09-14T11:27:49.940Z,56.44
2022-09-14T11:30:22.350Z,56.27
2022-09-14T11:32:56.118Z,56.55
2022-09-14T11:35:23.782Z,56.72
2022-09-14T11:38:21.035Z,56.96
2022-09-14T11:40:57.807Z,56.96
2022-09-14T11:43:42.892Z,57.14
2022-09-14T11:46:17.456Z,57.23
2022-09-14T11:48:52.273Z,57.23
2022-09-14T11:51:23.976Z,57.17
2022-09-14T11:53:52.274Z,57.19
2022-09-14T11:56:26.423Z,57.19
2022-09-14T11:58:58.850Z,57.42
2022-09-14T12:01:32.757Z,57.66
2022-09-14T12:04:00.548Z,57.63
2022-09-14T12:06:28.597Z,57.59
2022-09-14T12:09:16.508Z,57.52
2022-09-14T12:11:45.228Z,57.65
2022-09-14T12:14:30.389Z,57.98
2022-09-14T12:17:17.250Z,58.03
2022-09-14T12:19:58.684Z,57.75
2022-09-14T12:22:37.316Z,58.31
2022-09-14T12:25:16.741Z,58.35
2022-09-14T12:27:46.866Z,58.57
2022-09-14T12:30:40.917Z,58.24
2022-09-14T12:33:28.057Z,58.25
2022-09-14T12:35:55.811Z,58.34
2022-09-14T12:38:29.830Z,58.06
2022-09-14T12:41:08.446Z,57.85
2022-09-14T12:43:36.924Z,58.05
2022-09-14T12:46:04.704Z,57.95
2022-09-14T12:48:47.624Z,57.83
2022-09-14T12:51:25.775Z,57.58
2022-09-14T12:54:02.898Z,56.95
2022-09-14T12:56:37.060Z,57.07
2022-09-14T12:59:10.409Z,56.70
2022-09-14T13:01:44.252Z,56.94
2022-09-14T13:04:14.539Z,57.00
2022-09-14T13:06:47.422Z,56.17
2022-09-14T13:09:17.949Z,55.98
2022-09-14T13:11:46.743Z,56.01
2022-09-14T13:14:19.094Z,55.64
2022-09-14T13:16:49.629Z,56.18
2022-09-14T13:19:20.468Z,56.53
2022-09-14T13:21:49.672Z,56.44
2022-09-14T13:24:25.828Z,56.52
2022-09-14T13:26:55.199Z,56.55
2022-09-14T13:29:24.736Z,56.42
2022-09-14T13:31:53.101Z,56.58
2022-09-14T13:34:23.439Z,56.86
2022-09-14T13:36:52.331Z,56.94
2022-09-14T13:39:32.075Z,57.26
2022-09-14T13:42:00.380Z,57.24
2022-09-14T13:44:31.290Z,57.21
2022-09-14T13:47:01.509Z,57.44
2022-09-14T13:49:29.889Z,57.77
2022-09-14T13:52:17.213Z,57.72
2022-09-14T13:54:46.648Z,57.53
2022-09-14T13:57:19.037Z,57.38
2022-09-14T14:00:05.821Z,57.33
2022-09-14T14:02:34.974Z,57.41
2022-09-14T14:05:06.384Z,57.48
2022-09-14T14:07:35.024Z,57.61
2022-09-14T14:10:04.103Z,57.63
2022-09-14T14:12:34.199Z,57.81
2022-09-14T14:15:04.359Z,57.52
2022-09-14T14:17:34.481Z,57.45
2022-09-14T14:20:31.493Z,57.24
2022-09-14T14:23:01.953Z,57.41
2022-09-14T14:25:32.176Z,57.40
2022-09-14T14:28:01.782Z,57.59
2022-09-14T14:30:30.467Z,57.71
2022-09-14T14:32:59.459Z,57.71
2022-09-14T14:35:29.681Z,57.79
2022-09-14T14:37:58.009Z,58.01
2022-09-14T14:40:29.953Z,57.97
2022-09-14T14:42:58.503Z,58.10
2022-09-14T14:45:27.396Z,58.41
2022-09-14T14:47:55.737Z,58.28
2022-09-14T14:50:26.694Z,58.34
2022-09-14T14:52:54.659Z,58.40
2022-09-14T14:55:23.674Z,58.57
2022-09-14T14:57:52.052Z,58.79
2022-09-14T15:00:21.566Z,58.90
2022-09-14T15:02:50.144Z,58.88
2022-09-14T15:05:18.001Z,58.92
2022-09-14T15:07:46.300Z,59.01
2022-09-14T15:10:15.193Z,59.07
2022-09-14T15:12:43.909Z,59.11
2022-09-14T15:15:15.613Z,59.23
2022-09-14T15:17:43.712Z,59.43
2022-09-14T15:20:12.675Z,59.72
2022-09-14T15:22:42.528Z,59.87
2022-09-14T15:25:11.585Z,59.79
2022-09-14T15:27:41.032Z,59.84
2022-09-14T15:30:10.474Z,59.84
2022-09-14T15:32:38.978Z,59.92
2022-09-14T15:35:07.842Z,59.93
2022-09-14T15:37:35.855Z,60.21
2022-09-14T15:40:04.576Z,60.33
2022-09-14T15:42:32.698Z,60.37
2022-09-14T15:45:00.557Z,60.46
2022-09-14T15:47:30.726Z,60.40
2022-09-14T15:50:01.908Z,60.61
2022-09-14T15:52:29.781Z,60.64
2022-09-14T15:54:57.530Z,60.89
2022-09-14T15:57:25.419Z,60.97
2022-09-14T15:59:54.078Z,61.38
2022-09-14T16:02:22.238Z,61.39
2022-09-14T16:04:50.240Z,61.32
2022-09-14T16:07:17.980Z,61.46
2022-09-14T16:09:45.972Z,61.74
2022-09-14T16:12:14.042Z,61.83
2022-09-14T16:14:41.759Z,62.05
2022-09-14T16:17:11.412Z,61.92
2022-09-14T16:19:39.381Z,62.10
2022-09-14T16:22:07.376Z,62.25
2022-09-14T16:24:35.317Z,62.19
2022-09-14T16:27:03.314Z,62.34
2022-09-14T16:29:31.154Z,62.33
2022-09-14T16:31:59.065Z,62.53
2022-09-14T16:34:28.316Z,62.53
2022-09-14T16:36:58.552Z,62.63
2022-09-14T16:39:28.555Z,62.61
2022-09-14T16:41:56.987Z,62.65
2022-09-14T16:44:26.134Z,62.72
2022-09-14T16:46:55.021Z,62.72
2022-09-14T16:49:27.166Z,62.73
2022-09-14T16:51:57.435Z,62.94
2022-09-14T16:54:26.125Z,62.90
2022-09-14T16:56:58.131Z,63.04
2022-09-14T16:59:26.253Z,62.99
2022-09-14T17:01:55.185Z,62.95
2022-09-14T17:04:26.880Z,63.06
2022-09-14T17:06:56.247Z,62.93
2022-09-14T17:09:26.631Z,62.93
2022-09-14T17:11:55.313Z,62.96
2022-09-14T17:14:28.497Z,63.08
2022-09-14T17:16:57.123Z,63.08
2022-09-14T17:19:25.756Z,63.22
2022-09-14T17:21:53.619Z,63.14
2022-09-14T17:24:21.789Z,63.11
2022-09-14T17:26:50.053Z,63.21
2022-09-14T17:29:17.879Z,63.31
2022-09-14T17:31:46.075Z,63.34
2022-09-14T17:34:16.017Z,63.22
2022-09-14T17:36:45.010Z,63.25
2022-09-14T17:39:14.266Z,63.30
2022-09-14T17:41:43.074Z,62.88
2022-09-14T17:44:12.709Z,62.54
2022-09-14T17:46:51.259Z,62.21
2022-09-14T17:49:21.647Z,62.16
2022-09-14T17:51:50.043Z,62.13
2022-09-14T17:54:18.874Z,62.15
2022-09-14T17:56:46.940Z,61.86
2022-09-14T17:59:17.073Z,61.72
2022-09-14T18:01:45.586Z,61.35
2022-09-14T18:04:15.298Z,60.89
2022-09-14T18:06:44.454Z,60.85
2022-09-14T18:09:14.000Z,60.78
2022-09-14T18:11:42.536Z,60.82
2022-09-14T18:14:13.013Z,60.69
2022-09-14T18:16:41.441Z,60.73
2022-09-14T18:19:09.661Z,61.01
2022-09-14T18:21:37.404Z,61.20
2022-09-14T18:24:05.497Z,61.34
2022-09-14T18:26:33.405Z,61.64
2022-09-14T18:29:01.227Z,61.92
2022-09-14T18:31:29.192Z,62.25
2022-09-14T18:33:59.534Z,62.40
2022-09-14T18:36:29.498Z,62.61
2022-09-14T18:38:58.631Z,63.01
2022-09-14T18:41:29.567Z,63.43
2022-09-14T18:43:57.845Z,63.70
2022-09-14T18:46:28.396Z,64.18
2022-09-14T18:48:57.918Z,64.34
2022-09-14T18:51:26.874Z,64.30
2022-09-14T18:53:58.627Z,64.63
2022-09-14T18:56:27.790Z,64.88
2022-09-14T18:58:55.845Z,64.92
2022-09-14T19:01:23.795Z,65.32
2022-09-14T19:03:52.113Z,65.24
2022-09-14T19:06:20.213Z,65.69
2022-09-14T19:08:48.622Z,65.62
2022-09-14T19:11:20.913Z,65.83
2022-09-14T19:13:50.873Z,66.17
2022-09-14T19:16:19.393Z,66.25
2022-09-14T19:18:49.975Z,66.44
2022-09-14T19:21:25.225Z,66.53
2022-09-14T19:24:00.836Z,66.74
2022-09-14T19:26:30.351Z,67.00
2022-09-14T19:29:02.125Z,67.48
2022-09-14T19:31:30.949Z,67.43
2022-09-14T19:33:59.678Z,67.70
2022-09-14T19:36:28.089Z,67.97
2022-09-14T19:38:57.512Z,67.93
2022-09-14T19:41:25.667Z,67.81
2022-09-14T19:43:53.764Z,68.10
2022-09-14T19:46:23.472Z,68.42
2022-09-14T19:48:52.484Z,68.59
2022-09-14T19:51:21.666Z,68.68
2022-09-14T19:53:50.976Z,68.79
2022-09-14T19:56:20.237Z,68.84
2022-09-14T19:58:50.096Z,69.03
2022-09-14T20:01:19.099Z,68.74
2022-09-14T20:03:47.575Z,68.85
2022-09-14T20:06:19.790Z,68.70
2022-09-14T20:08:48.678Z,68.63
2022-09-14T20:11:19.941Z,68.50
2022-09-14T20:13:48.646Z,68.79
2022-09-14T20:16:17.884Z,68.66
2022-09-14T20:18:46.418Z,68.81
2022-09-14T20:21:16.587Z,68.77
2022-09-14T20:24:11.455Z,69.13
2022-09-14T20:26:34.701Z,69.07
2022-09-14T20:29:02.724Z,68.94
2022-09-14T20:31:31.027Z,69.52
2022-09-14T20:33:59.699Z,69.52
2022-09-14T20:36:28.683Z,69.43
2022-09-14T20:38:57.379Z,70.00
2022-09-14T20:41:29.989Z,70.43
2022-09-14T20:43:58.027Z,70.46
2022-09-14T20:46:27.565Z,70.57
2022-09-14T20:48:55.529Z,70.56
2022-09-14T20:51:25.094Z,70.92
2022-09-14T20:53:53.382Z,71.18
2022-09-14T20:56:22.679Z,71.13
2022-09-14T20:58:53.554Z,71.11
2022-09-14T21:01:22.490Z,71.28
2022-09-14T21:03:50.840Z,71.57
2022-09-14T21:06:23.462Z,71.82
2022-09-14T21:08:51.778Z,71.73
2022-09-14T21:11:21.856Z,71.85
2022-09-14T21:13:51.371Z,72.01
2022-09-14T21:16:20.932Z,71.91
2022-09-14T21:18:52.298Z,71.98
2022-09-14T21:21:20.321Z,72.06
2022-09-14T21:23:48.974Z,72.18
2022-09-14T21:26:17.916Z,72.22
2022-09-14T21:28:46.136Z,72.14
2022-09-14T21:31:16.985Z,72.04
2022-09-14T21:33:47.131Z,71.78
2022-09-14T21:36:16.496Z,71.88
2022-09-14T21:38:48.884Z,71.75
2022-09-14T21:41:17.091Z,71.67
2022-09-14T21:43:44.827Z,71.63
2022-09-14T21:46:12.828Z,71.35
2022-09-14T21:48:40.951Z,71.13
2022-09-14T21:51:15.510Z,71.03
2022-09-14T21:53:50.400Z,70.79
2022-09-14T21:56:18.689Z,70.42
2022-09-14T21:58:50.781Z,70.25
2022-09-14T22:01:18.689Z,70.21
2022-09-14T22:03:46.861Z,69.97
2022-09-14T22:06:16.598Z,69.97
2022-09-14T22:08:44.836Z,70.17
2022-09-14T22:11:14.238Z,70.02
2022-09-14T22:13:42.033Z,70.00
2022-09-14T22:16:14.205Z,69.99
2022-09-14T22:18:47.257Z,70.02
2022-09-14T22:21:15.356Z,70.09
2022-09-14T22:23:43.644Z,70.24
2022-09-14T22:26:12.331Z,70.48
2022-09-14T22:28:41.115Z,70.47
2022-09-14T22:31:09.669Z,70.57
2022-09-14T22:33:37.875Z,70.76
2022-09-14T22:36:06.470Z,70.97
2022-09-14T22:38:34.833Z,71.03
2022-09-14T22:41:04.229Z,71.23
2022-09-14T22:43:33.642Z,71.13
2022-09-14T22:46:02.466Z,71.30
2022-09-14T22:48:31.422Z,71.45
2022-09-14T22:51:00.204Z,71.69
2022-09-14T22:53:28.795Z,71.65
2022-09-14T22:55:57.064Z,71.75
2022-09-14T22:58:26.562Z,71.81
2022-09-14T23:00:54.792Z,71.78
2022-09-14T23:03:23.735Z,71.73
2022-09-14T23:05:53.095Z,71.75
2022-09-14T23:08:21.408Z,71.64
2022-09-14T23:10:49.971Z,71.56
2022-09-14T23:13:17.690Z,71.60
2022-09-14T23:15:46.439Z,71.66
2022-09-14T23:18:14.510Z,71.57
2022-09-14T23:20:43.402Z,71.62
2022-09-14T23:23:12.083Z,71.74
2022-09-14T23:25:40.670Z,71.62
2022-09-14T23:28:10.950Z,71.51
2022-09-14T23:30:39.313Z,71.58
2022-09-14T23:33:07.448Z,71.76
2022-09-14T23:35:37.759Z,71.63
2022-09-14T23:38:06.252Z,71.71
2022-09-14T23:40:34.326Z,71.64
2022-09-14T23:43:02.597Z,71.69
2022-09-14T23:45:30.459Z,71.74
2022-09-14T23:47:58.221Z,72.14
2022-09-14T23:50:26.596Z,72.38
2022-09-14T23:52:57.637Z,72.18
2022-09-14T23:55:25.914Z,72.36
2022-09-14T23:57:53.978Z,72.25
